Time,TemperatureF,DewpointF,PressureIn,WindDirection,WindDirectionDegrees,WindSpeedMPH,WindSpeedGustMPH,Humidity,HourlyPrecipIn,Conditions,Clouds,dailyrainin,SoftwareType,DateUTC
2014-01-24 00:01:00,3.2,0.4,30.57,ENE,76,0.0,2.0,88,0.00,,RMK 146.475 MHz QRV !SN!,0.00,WUHU216DAVISVP2,2014-01-24 05:01:00,
2014-01-24 00:06:00,2.9,0.1,30.57,East,89,0.0,2.0,88,0.00,,RMK 146.475 MHz QRV !SN!,0.00,WUHU216DAVISVP2,2014-01-24 05:06:00,
2014-01-24 00:11:00,2.5,-0.2,30.57,ENE,69,2.0,3.0,88,0.00,,RMK 146.475 MHz QRV !SN!,0.00,WUHU216DAVISVP2,2014-01-24 05:11:00,
2014-01-24 00:17:00,2.1,-0.9,30.57,East,84,0.0,3.0,87,0.00,,RMK 146.475 MHz QRV !SN!,0.00,WUHU216DAVISVP2,2014-01-24 05:17:00,
2014-01-24 00:22:00,1.7,-1.3,30.57,East,79,1.0,3.0,87,0.00,,RMK 146.475 MHz QRV !SN!,0.00,WUHU216DAVISVP2,2014-01-24 05:22:00,
2014-01-24 00:28:00,1.4,-1.6,30.58,NE,50,0.0,3.0,87,0.00,,RMK 146.475 MHz QRV !SN!,0.00,WUHU216DAVISVP2,2014-01-24 05:28:00,
2014-01-24 00:33:00,1.0,-2.0,30.57,ENE,75,0.0,2.0,87,0.00,,RMK 146.475 MHz QRV !SN!,0.00,WUHU216DAVISVP2,2014-01-24 05:33:00,
2014-01-24 00:38:00,0.7,-2.3,30.57,ENE,71,1.0,2.0,87,0.00,,RMK 146.475 MHz QRV !SN!,0.00,WUHU216DAVISVP2,2014-01-24 05:38:00,
2014-01-24 00:44:00,0.4,-2.6,30.57,East,89,0.0,2.0,87,0.00,,RMK 146.475 MHz QRV !SN!,0.00,WUHU216DAVISVP2,2014-01-24 05:44:00,
2014-01-24 00:49:00,0.2,-2.8,30.57,East,90,0.0,2.0,87,0.00,,RMK 146.475 MHz QRV !SN!,0.00,WUHU216DAVISVP2,2014-01-24 05:49:00,
2014-01-24 00:55:00,0.1,-2.6,30.57,East,82,0.0,2.0,88,0.00,,RMK 146.475 MHz QRV !SN!,0.00,WUHU216DAVISVP2,2014-01-24 05:55:00,
2014-01-24 01:00:00,-0.1,-2.8,30.57,NNE,15,0.0,2.0,88,0.00,,RMK 146.475 MHz QRV !SN!,0.00,WUHU216DAVISVP2,2014-01-24 06:00:00,
2014-01-24 01:06:00,-0.3,-3.3,30.57,East,94,0.0,2.0,87,0.00,,RMK 146.475 MHz QRV !SN!,0.00,WUHU216DAVISVP2,2014-01-24 06:06:00,
2014-01-24 01:11:00,-0.5,-3.5,30.57,NNE,16,0.0,2.0,87,0.00,,RMK 146.475 MHz QRV !SN!,0.00,WUHU216DAVISVP2,2014-01-24 06:11:00,
2014-01-24 01:16:00,-0.6,-3.6,30.57,ENE,68,1.0,2.0,87,0.00,,RMK 146.475 MHz QRV !SN!,0.00,WUHU216DAVISVP2,2014-01-24 06:16:00,
2014-01-24 01:22:00,-0.7,-3.7,30.57,ESE,108,0.0,3.0,87,0.00,,RMK 146.475 MHz QRV !SN!,0.00,WUHU216DAVISVP2,2014-01-24 06:22:00,
2014-01-24 01:27:00,-0.9,-3.9,30.57,East,88,0.0,3.0,87,0.00,,RMK 146.475 MHz QRV !SN!,0.00,WUHU216DAVISVP2,2014-01-24 06:27:00,
2014-01-24 01:33:00,-1.0,-3.9,30.56,East,84,0.0,2.0,87,0.00,,RMK 146.475 MHz QRV !SN!,0.00,WUHU216DAVISVP2,2014-01-24 06:33:00,
2014-01-24 01:38:00,-1.1,-3.8,30.56,East,93,0.0,1.0,88,0.00,,RMK 146.475 MHz QRV !SN!,0.00,WUHU216DAVISVP2,2014-01-24 06:38:00,
2014-01-24 01:43:00,-1.2,-3.9,30.56,East,101,0.0,1.0,88,0.00,,RMK 146.475 MHz QRV !SN!,0.00,WUHU216DAVISVP2,2014-01-24 06:43:00,
2014-01-24 01:49:00,-1.2,-3.9,30.57,East,84,0.0,2.0,88,0.00,,RMK 146.475 MHz QRV !SN!,0.00,WUHU216DAVISVP2,2014-01-24 06:49:00,
2014-01-24 01:54:00,-1.3,-4.0,30.57,East,94,0.0,2.0,88,0.00,,RMK 146.475 MHz QRV !SN!,0.00,WUHU216DAVISVP2,2014-01-24 06:54:00,
2014-01-24 02:00:00,-1.2,-3.9,30.57,East,86,0.0,2.0,88,0.00,,RMK 146.475 MHz QRV !SN!,0.00,WUHU216DAVISVP2,2014-01-24 07:00:00,
2014-01-24 02:05:00,-1.3,-4.0,30.57,ENE,75,0.0,2.0,88,0.00,,RMK 146.475 MHz QRV !SN!,0.00,WUHU216DAVISVP2,2014-01-24 07:05:00,
2014-01-24 02:10:00,-1.4,-4.1,30.57,East,81,0.0,2.0,88,0.00,,RMK 146.475 MHz QRV !SN!,0.00,WUHU216DAVISVP2,2014-01-24 07:10:00,
2014-01-24 02:16:00,-1.4,-4.1,30.57,ESE,114,0.0,2.0,88,0.00,,RMK 146.475 MHz QRV !SN!,0.00,WUHU216DAVISVP2,2014-01-24 07:16:00,
2014-01-24 02:21:00,-1.4,-4.1,30.58,East,97,0.0,2.0,88,0.00,,RMK 146.475 MHz QRV !SN!,0.00,WUHU216DAVISVP2,2014-01-24 07:21:00,
2014-01-24 02:27:00,-1.6,-4.3,30.58,East,82,0.0,2.0,88,0.00,,RMK 146.475 MHz QRV !SN!,0.00,WUHU216DAVISVP2,2014-01-24 07:27:00,
2014-01-24 02:32:00,-1.6,-4.3,30.58,ESE,110,0.0,1.0,88,0.00,,RMK 146.475 MHz QRV !SN!,0.00,WUHU216DAVISVP2,2014-01-24 07:32:00,
2014-01-24 02:37:00,-1.7,-4.4,30.58,NNE,26,0.0,1.0,88,0.00,,RMK 146.475 MHz QRV !SN!,0.00,WUHU216DAVISVP2,2014-01-24 07:37:00,
2014-01-24 02:43:00,-1.8,-4.8,30.58,ESE,117,0.0,2.0,87,0.00,,RMK 146.475 MHz QRV !SN!,0.00,WUHU216DAVISVP2,2014-01-24 07:43:00,
2014-01-24 02:48:00,-1.8,-4.5,30.58,East,100,0.0,2.0,88,0.00,,RMK 146.475 MHz QRV !SN!,0.00,WUHU216DAVISVP2,2014-01-24 07:48:00,
2014-01-24 02:54:00,-1.8,-4.5,30.58,East,82,1.0,3.0,88,0.00,,RMK 146.475 MHz QRV !SN!,0.00,WUHU216DAVISVP2,2014-01-24 07:54:00,
2014-01-24 02:59:00,-1.8,-4.5,30.58,East,88,0.0,3.0,88,0.00,,RMK 146.475 MHz QRV !SN!,0.00,WUHU216DAVISVP2,2014-01-24 07:59:00,
2014-01-24 03:09:00,-2.0,-4.7,30.58,ENE,72,0.0,2.0,88,0.00,,RMK 146.475 MHz QRV !SN!,0.00,WUHU216DAVISVP2,2014-01-24 08:09:00,
2014-01-24 03:14:00,-2.1,-4.8,30.58,East,86,0.0,1.0,88,0.00,,RMK 146.475 MHz QRV !SN!,0.00,WUHU216DAVISVP2,2014-01-24 08:14:00,
2014-01-24 03:19:00,-2.1,-4.8,30.58,ENE,69,0.0,1.0,88,0.00,,RMK 146.475 MHz QRV !SN!,0.00,WUHU216DAVISVP2,2014-01-24 08:19:00,
2014-01-24 03:24:00,-2.2,-4.9,30.58,East,98,0.0,1.0,88,0.00,,RMK 146.475 MHz QRV !SN!,0.00,WUHU216DAVISVP2,2014-01-24 08:24:00,
2014-01-24 03:29:00,-2.2,-4.9,30.58,East,98,0.0,1.0,88,0.00,,RMK 146.475 MHz QRV !SN!,0.00,WUHU216DAVISVP2,2014-01-24 08:29:00,
2014-01-24 03:34:00,-2.4,-5.1,30.58,NE,39,0.0,1.0,88,0.00,,RMK 146.475 MHz QRV !SN!,0.00,WUHU216DAVISVP2,2014-01-24 08:34:00,
2014-01-24 03:39:00,-2.4,-5.1,30.58,ENE,66,0.0,2.0,88,0.00,,RMK 146.475 MHz QRV !SN!,0.00,WUHU216DAVISVP2,2014-01-24 08:39:00,
2014-01-24 03:44:00,-2.5,-5.2,30.58,East,100,0.0,2.0,88,0.00,,RMK 146.475 MHz QRV !SN!,0.00,WUHU216DAVISVP2,2014-01-24 08:44:00,
2014-01-24 03:49:00,-2.5,-5.2,30.57,East,98,0.0,2.0,88,0.00,,RMK 146.475 MHz QRV !SN!,0.00,WUHU216DAVISVP2,2014-01-24 08:49:00,
2014-01-24 03:54:00,-2.6,-5.3,30.57,East,84,0.0,1.0,88,0.00,,RMK 146.475 MHz QRV !SN!,0.00,WUHU216DAVISVP2,2014-01-24 08:54:00,
2014-01-24 03:59:00,-2.7,-5.4,30.58,East,81,0.0,1.0,88,0.00,,RMK 146.475 MHz QRV !SN!,0.00,WUHU216DAVISVP2,2014-01-24 08:59:00,
2014-01-24 04:04:00,-2.8,-5.5,30.57,NNW,338,1.0,1.0,88,0.00,,RMK 146.475 MHz QRV !SN!,0.00,WUHU216DAVISVP2,2014-01-24 09:04:00,
2014-01-24 04:09:00,-2.9,-5.6,30.58,ESE,107,0.0,2.0,88,0.00,,RMK 146.475 MHz QRV !SN!,0.00,WUHU216DAVISVP2,2014-01-24 09:09:00,
2014-01-24 04:14:00,-3.0,-5.7,30.57,NNE,29,0.0,2.0,88,0.00,,RMK 146.475 MHz QRV !SN!,0.00,WUHU216DAVISVP2,2014-01-24 09:14:00,
2014-01-24 04:19:00,-3.1,-5.8,30.57,ENE,59,0.0,2.0,88,0.00,,RMK 146.475 MHz QRV !SN!,0.00,WUHU216DAVISVP2,2014-01-24 09:19:00,
2014-01-24 04:24:00,-3.1,-5.8,30.57,WNW,294,0.0,1.0,88,0.00,,RMK 146.475 MHz QRV !SN!,0.00,WUHU216DAVISVP2,2014-01-24 09:24:00,
2014-01-24 04:29:00,-3.1,-5.8,30.57,ENE,69,0.0,1.0,88,0.00,,RMK 146.475 MHz QRV !SN!,0.00,WUHU216DAVISVP2,2014-01-24 09:29:00,
2014-01-24 04:34:00,-3.1,-5.8,30.57,SSE,153,0.0,1.0,88,0.00,,RMK 146.475 MHz QRV !SN!,0.00,WUHU216DAVISVP2,2014-01-24 09:34:00,
2014-01-24 04:39:00,-3.2,-5.9,30.57,ENE,59,1.0,2.0,88,0.00,,RMK 146.475 MHz QRV !SN!,0.00,WUHU216DAVISVP2,2014-01-24 09:39:00,
2014-01-24 04:44:00,-3.1,-5.8,30.57,NE,41,0.0,2.0,88,0.00,,RMK 146.475 MHz QRV !SN!,0.00,WUHU216DAVISVP2,2014-01-24 09:44:00,
2014-01-24 04:49:00,-3.2,-5.9,30.57,NNE,18,1.0,2.0,88,0.00,,RMK 146.475 MHz QRV !SN!,0.00,WUHU216DAVISVP2,2014-01-24 09:49:00,
2014-01-24 04:54:00,-3.1,-5.8,30.56,ENE,58,0.0,3.0,88,0.00,,RMK 146.475 MHz QRV !SN!,0.00,WUHU216DAVISVP2,2014-01-24 09:54:00,
2014-01-24 04:59:00,-3.0,-5.7,30.57,East,94,0.0,3.0,88,0.00,,RMK 146.475 MHz QRV !SN!,0.00,WUHU216DAVISVP2,2014-01-24 09:59:00,
2014-01-24 05:04:00,-3.1,-5.8,30.57,NE,43,1.0,3.0,88,0.00,,RMK 146.475 MHz QRV !SN!,0.00,WUHU216DAVISVP2,2014-01-24 10:04:00,
2014-01-24 05:09:00,-3.0,-5.7,30.57,East,90,0.0,3.0,88,0.00,,RMK 146.475 MHz QRV !SN!,0.00,WUHU216DAVISVP2,2014-01-24 10:09:00,
2014-01-24 05:14:00,-3.0,-5.7,30.56,NNW,333,1.0,3.0,88,0.00,,RMK 146.475 MHz QRV !SN!,0.00,WUHU216DAVISVP2,2014-01-24 10:14:00,
2014-01-24 05:19:00,-3.0,-5.7,30.56,NE,52,0.0,3.0,88,0.00,,RMK 146.475 MHz QRV !SN!,0.00,WUHU216DAVISVP2,2014-01-24 10:19:00,
2014-01-24 05:24:00,-3.1,-5.8,30.56,NE,47,0.0,3.0,88,0.00,,RMK 146.475 MHz QRV !SN!,0.00,WUHU216DAVISVP2,2014-01-24 10:24:00,
2014-01-24 05:29:00,-3.1,-5.8,30.56,NE,41,0.0,3.0,88,0.00,,RMK 146.475 MHz QRV !SN!,0.00,WUHU216DAVISVP2,2014-01-24 10:29:00,
2014-01-24 05:34:00,-3.2,-6.1,30.56,ENE,72,0.0,3.0,87,0.00,,RMK 146.475 MHz QRV !SN!,0.00,WUHU216DAVISVP2,2014-01-24 10:34:00,
2014-01-24 05:39:00,-3.2,-6.1,30.56,NNE,18,1.0,3.0,87,0.00,,RMK 146.475 MHz QRV !SN!,0.00,WUHU216DAVISVP2,2014-01-24 10:39:00,
2014-01-24 05:44:00,-3.3,-6.2,30.56,ENE,59,1.0,2.0,87,0.00,,RMK 146.475 MHz QRV !SN!,0.00,WUHU216DAVISVP2,2014-01-24 10:44:00,
2014-01-24 05:49:00,-3.3,-6.2,30.56,ENE,75,0.0,2.0,87,0.00,,RMK 146.475 MHz QRV !SN!,0.00,WUHU216DAVISVP2,2014-01-24 10:49:00,
2014-01-24 05:54:00,-3.4,-6.3,30.56,NE,45,0.0,2.0,87,0.00,,RMK 146.475 MHz QRV !SN!,0.00,WUHU216DAVISVP2,2014-01-24 10:54:00,
2014-01-24 05:59:00,-3.4,-6.3,30.56,North,352,1.0,2.0,87,0.00,,RMK 146.475 MHz QRV !SN!,0.00,WUHU216DAVISVP2,2014-01-24 10:59:00,
2014-01-24 06:04:00,-3.5,-6.4,30.56,NNE,20,0.0,2.0,87,0.00,,RMK 146.475 MHz QRV !SN!,0.00,WUHU216DAVISVP2,2014-01-24 11:04:00,
2014-01-24 06:09:00,-3.4,-6.3,30.56,NW,308,0.0,2.0,87,0.00,,RMK 146.475 MHz QRV !SN!,0.00,WUHU216DAVISVP2,2014-01-24 11:09:00,
2014-01-24 06:14:00,-3.5,-6.2,30.56,East,93,0.0,2.0,88,0.00,,RMK 146.475 MHz QRV !SN!,0.00,WUHU216DAVISVP2,2014-01-24 11:14:00,
2014-01-24 06:19:00,-3.4,-6.1,30.55,NNE,15,2.0,4.0,88,0.00,,RMK 146.475 MHz QRV !SN!,0.00,WUHU216DAVISVP2,2014-01-24 11:19:00,
2014-01-24 06:24:00,-3.3,-6.0,30.55,ENE,61,0.0,4.0,88,0.00,,RMK 146.475 MHz QRV !SN!,0.00,WUHU216DAVISVP2,2014-01-24 11:24:00,
2014-01-24 06:29:00,-3.4,-6.3,30.55,NW,320,1.0,3.0,87,0.00,,RMK 146.475 MHz QRV !SN!,0.00,WUHU216DAVISVP2,2014-01-24 11:29:00,
2014-01-24 06:34:00,-3.5,-6.4,30.55,North,349,3.0,4.0,87,0.00,,RMK 146.475 MHz QRV !SN!,0.00,WUHU216DAVISVP2,2014-01-24 11:34:00,
2014-01-24 06:39:00,-3.5,-6.4,30.55,ESE,115,0.0,4.0,87,0.00,,RMK 146.475 MHz QRV !SN!,0.00,WUHU216DAVISVP2,2014-01-24 11:39:00,
2014-01-24 06:44:00,-3.5,-6.4,30.55,NNW,328,2.0,4.0,87,0.00,,RMK 146.475 MHz QRV !SN!,0.00,WUHU216DAVISVP2,2014-01-24 11:44:00,
2014-01-24 06:49:00,-3.4,-6.1,30.55,North,3,1.0,4.0,88,0.00,,RMK 146.475 MHz QRV !SN!,0.00,WUHU216DAVISVP2,2014-01-24 11:49:00,
2014-01-24 06:54:00,-3.3,-6.0,30.54,NE,44,0.0,4.0,88,0.00,,RMK 146.475 MHz QRV !SN!,0.00,WUHU216DAVISVP2,2014-01-24 11:54:00,
2014-01-24 06:59:00,-3.2,-5.9,30.55,NNE,31,0.0,4.0,88,0.00,,RMK 146.475 MHz QRV !SN!,0.00,WUHU216DAVISVP2,2014-01-24 11:59:00,
2014-01-24 07:04:00,-3.1,-5.8,30.54,NNE,25,1.0,3.0,88,0.00,,RMK 146.475 MHz QRV !SN!,0.00,WUHU216DAVISVP2,2014-01-24 12:04:00,
2014-01-24 07:09:00,-3.0,-5.7,30.54,NNW,346,2.0,4.0,88,0.00,,RMK 146.475 MHz QRV !SN!,0.00,WUHU216DAVISVP2,2014-01-24 12:09:00,
2014-01-24 07:14:00,-2.9,-5.6,30.54,NE,38,0.0,4.0,88,0.00,,RMK 146.475 MHz QRV !SN!,0.00,WUHU216DAVISVP2,2014-01-24 12:14:00,
2014-01-24 07:19:00,-2.9,-5.8,30.54,NNE,23,1.0,4.0,87,0.00,,RMK 146.475 MHz QRV !SN!,0.00,WUHU216DAVISVP2,2014-01-24 12:19:00,
2014-01-24 07:24:00,-3.0,-5.9,30.54,ENE,63,0.0,4.0,87,0.00,,RMK 146.475 MHz QRV !SN!,0.00,WUHU216DAVISVP2,2014-01-24 12:24:00,
2014-01-24 07:29:00,-3.1,-6.0,30.53,NNE,18,0.0,4.0,87,0.00,,RMK 146.475 MHz QRV !SN!,0.00,WUHU216DAVISVP2,2014-01-24 12:29:00,
2014-01-24 07:34:00,-3.2,-6.1,30.53,ENE,68,1.0,4.0,87,0.00,,RMK 146.475 MHz QRV !SN!,0.00,WUHU216DAVISVP2,2014-01-24 12:34:00,
2014-01-24 07:39:00,-3.2,-6.1,30.53,NNE,13,1.0,3.0,87,0.00,,RMK 146.475 MHz QRV !SN!,0.00,WUHU216DAVISVP2,2014-01-24 12:39:00,
2014-01-24 07:44:00,-3.4,-6.3,30.53,ENE,69,0.0,4.0,87,0.00,,RMK 146.475 MHz QRV !SN!,0.00,WUHU216DAVISVP2,2014-01-24 12:44:00,
2014-01-24 07:49:00,-3.4,-6.3,30.53,NW,314,0.0,4.0,87,0.00,,RMK 146.475 MHz QRV !SN!,0.00,WUHU216DAVISVP2,2014-01-24 12:49:00,
2014-01-24 07:54:00,-3.4,-6.3,30.53,ESE,112,0.0,4.0,87,0.00,,RMK 146.475 MHz QRV !SN!,0.00,WUHU216DAVISVP2,2014-01-24 12:54:00,
2014-01-24 07:59:00,-3.4,-6.3,30.53,North,352,3.0,5.0,87,0.00,,RMK 146.475 MHz QRV !SN!,0.00,WUHU216DAVISVP2,2014-01-24 12:59:00,
2014-01-24 08:04:00,-3.4,-6.3,30.52,NE,56,0.0,5.0,87,0.00,,RMK 146.475 MHz QRV !SN!,0.00,WUHU216DAVISVP2,2014-01-24 13:04:00,
2014-01-24 08:09:00,-3.4,-6.3,30.52,WSW,249,0.0,5.0,87,0.00,,RMK 146.475 MHz QRV !SN!,0.00,WUHU216DAVISVP2,2014-01-24 13:09:00,
2014-01-24 08:14:00,-3.4,-6.3,30.52,North,5,0.0,4.0,87,0.00,,RMK 146.475 MHz QRV !SN!,0.00,WUHU216DAVISVP2,2014-01-24 13:14:00,
2014-01-24 08:19:00,-3.3,-6.2,30.52,NW,305,2.0,3.0,87,0.00,,RMK 146.475 MHz QRV !SN!,0.00,WUHU216DAVISVP2,2014-01-24 13:19:00,
2014-01-24 08:24:00,-3.2,-6.1,30.52,WNW,300,1.0,4.0,87,0.00,,RMK 146.475 MHz QRV !SN!,0.00,WUHU216DAVISVP2,2014-01-24 13:24:00,
2014-01-24 08:29:00,-3.2,-6.1,30.51,North,8,1.0,4.0,87,0.00,,RMK 146.475 MHz QRV !SN!,0.00,WUHU216DAVISVP2,2014-01-24 13:29:00,
2014-01-24 08:34:00,-3.0,-5.7,30.51,North,11,4.0,4.0,88,0.00,,RMK 146.475 MHz QRV !SN!,0.00,WUHU216DAVISVP2,2014-01-24 13:34:00,
2014-01-24 08:39:00,-2.8,-5.5,30.51,NNW,347,1.0,4.0,88,0.00,,RMK 146.475 MHz QRV !SN!,0.00,WUHU216DAVISVP2,2014-01-24 13:39:00,
2014-01-24 08:44:00,-2.6,-5.3,30.51,ENE,65,0.0,4.0,88,0.00,,RMK 146.475 MHz QRV !SN!,0.00,WUHU216DAVISVP2,2014-01-24 13:44:00,
2014-01-24 08:49:00,-2.4,-5.1,30.51,NNE,12,1.0,5.0,88,0.00,,RMK 146.475 MHz QRV !SN!,0.00,WUHU216DAVISVP2,2014-01-24 13:49:00,
2014-01-24 08:55:00,-2.2,-4.9,30.51,ENE,68,0.0,5.0,88,0.00,,RMK 146.475 MHz QRV !SN!,0.00,WUHU216DAVISVP2,2014-01-24 13:55:00,
2014-01-24 09:01:00,-1.8,-4.5,30.51,ENE,58,1.0,5.0,88,0.00,,RMK 146.475 MHz QRV !SN!,0.00,WUHU216DAVISVP2,2014-01-24 14:01:00,
2014-01-24 09:06:00,-1.4,-4.1,30.51,NE,44,2.0,5.0,88,0.00,,RMK 146.475 MHz QRV !SN!,0.00,WUHU216DAVISVP2,2014-01-24 14:06:00,
2014-01-24 09:11:00,-1.1,-3.8,30.51,NE,47,1.0,4.0,88,0.00,,RMK 146.475 MHz QRV !SN!,0.00,WUHU216DAVISVP2,2014-01-24 14:11:00,
2014-01-24 09:16:00,-0.8,-3.5,30.51,NNE,15,3.0,4.0,88,0.00,,RMK 146.475 MHz QRV !SN!,0.00,WUHU216DAVISVP2,2014-01-24 14:16:00,
2014-01-24 09:21:00,-0.3,-3.0,30.50,NNW,347,2.0,4.0,88,0.00,,RMK 146.475 MHz QRV !SN!,0.00,WUHU216DAVISVP2,2014-01-24 14:21:00,
2014-01-24 09:26:00,0.2,-2.5,30.50,NNE,12,0.0,5.0,88,0.00,,RMK 146.475 MHz QRV !SN!,0.00,WUHU216DAVISVP2,2014-01-24 14:26:00,
2014-01-24 09:31:00,0.7,-2.1,30.50,SSE,159,0.0,5.0,88,0.00,,RMK 146.475 MHz QRV !SN!,0.00,WUHU216DAVISVP2,2014-01-24 14:31:00,
2014-01-24 09:36:00,1.3,-1.5,30.50,North,1,1.0,5.0,88,0.00,,RMK 146.475 MHz QRV !SN!,0.00,WUHU216DAVISVP2,2014-01-24 14:36:00,
2014-01-24 09:41:00,1.7,-1.1,30.49,ENE,78,0.0,5.0,88,0.00,,RMK 146.475 MHz QRV !SN!,0.00,WUHU216DAVISVP2,2014-01-24 14:41:00,
2014-01-24 09:46:00,2.2,-0.6,30.49,North,354,2.0,4.0,88,0.00,,RMK 146.475 MHz QRV !SN!,0.00,WUHU216DAVISVP2,2014-01-24 14:46:00,
2014-01-24 09:51:00,2.6,-0.4,30.49,NNW,333,3.0,7.0,87,0.00,,RMK 146.475 MHz QRV !SN!,0.00,WUHU216DAVISVP2,2014-01-24 14:51:00,
2014-01-24 09:56:00,2.9,-0.3,30.49,East,79,2.0,7.0,86,0.00,,RMK 146.475 MHz QRV !SN!,0.00,WUHU216DAVISVP2,2014-01-24 14:56:00,
2014-01-24 10:01:00,3.0,-0.3,30.49,East,82,0.0,6.0,86,0.00,,RMK 146.475 MHz QRV !SN!,0.00,WUHU216DAVISVP2,2014-01-24 15:01:00,
2014-01-24 10:06:00,3.2,-0.3,30.49,NNW,330,2.0,6.0,85,0.00,,RMK 146.475 MHz QRV !SN!,0.00,WUHU216DAVISVP2,2014-01-24 15:06:00,
2014-01-24 10:11:00,3.3,-0.2,30.49,NNW,328,0.0,5.0,85,0.00,,RMK 146.475 MHz QRV !SN!,0.00,WUHU216DAVISVP2,2014-01-24 15:11:00,
2014-01-24 10:16:00,3.6,0.1,30.48,North,8,1.0,5.0,85,0.00,,RMK 146.475 MHz QRV !SN!,0.00,WUHU216DAVISVP2,2014-01-24 15:16:00,
2014-01-24 10:21:00,3.9,0.4,30.48,North,4,1.0,5.0,85,0.00,,RMK 146.475 MHz QRV !SN!,0.00,WUHU216DAVISVP2,2014-01-24 15:21:00,
2014-01-24 10:26:00,4.4,0.6,30.48,ENE,72,4.0,5.0,84,0.00,,RMK 146.475 MHz QRV !SN!,0.00,WUHU216DAVISVP2,2014-01-24 15:26:00,
2014-01-24 10:31:00,4.7,0.9,30.47,NE,47,1.0,5.0,84,0.00,,RMK 146.475 MHz QRV !SN!,0.00,WUHU216DAVISVP2,2014-01-24 15:31:00,
2014-01-24 10:36:00,5.2,1.4,30.47,NNE,32,0.0,6.0,84,0.00,,RMK 146.475 MHz QRV !SN!,0.00,WUHU216DAVISVP2,2014-01-24 15:36:00,
2014-01-24 10:41:00,5.6,1.5,30.46,ENE,68,2.0,6.0,83,0.00,,RMK 146.475 MHz QRV !SN!,0.00,WUHU216DAVISVP2,2014-01-24 15:41:00,
2014-01-24 10:46:00,5.8,1.5,30.46,NE,46,3.0,8.0,82,0.00,,RMK 146.475 MHz QRV !SN!,0.00,WUHU216DAVISVP2,2014-01-24 15:46:00,
2014-01-24 10:51:00,6.1,1.8,30.45,East,86,1.0,8.0,82,0.00,,RMK 146.475 MHz QRV !SN!,0.00,WUHU216DAVISVP2,2014-01-24 15:51:00,
2014-01-24 10:56:00,6.5,2.2,30.45,NNE,22,2.0,7.0,82,0.00,,RMK 146.475 MHz QRV !SN!,0.00,WUHU216DAVISVP2,2014-01-24 15:56:00,
2014-01-24 11:01:00,7.1,2.8,30.45,East,93,1.0,7.0,82,0.00,,RMK 146.475 MHz QRV !SN!,0.00,WUHU216DAVISVP2,2014-01-24 16:01:00,
2014-01-24 11:06:00,7.4,2.5,30.44,NE,43,2.0,6.0,80,0.00,,RMK 146.475 MHz QRV !SN!,0.00,WUHU216DAVISVP2,2014-01-24 16:06:00,
2014-01-24 11:11:00,7.4,2.3,30.44,East,86,5.0,11.0,79,0.00,,RMK 146.475 MHz QRV !SN!,0.00,WUHU216DAVISVP2,2014-01-24 16:11:00,
2014-01-24 11:16:00,7.2,2.1,30.44,ENE,62,5.0,11.0,79,0.00,,RMK 146.475 MHz QRV !SN!,0.00,WUHU216DAVISVP2,2014-01-24 16:16:00,
2014-01-24 11:21:00,7.3,2.2,30.43,ENE,71,8.0,11.0,79,0.00,,RMK 146.475 MHz QRV !SN!,0.00,WUHU216DAVISVP2,2014-01-24 16:21:00,
2014-01-24 11:26:00,7.6,2.5,30.42,East,98,4.0,10.0,79,0.00,,RMK 146.475 MHz QRV !SN!,0.00,WUHU216DAVISVP2,2014-01-24 16:26:00,
2014-01-24 11:31:00,7.9,2.5,30.41,NNW,335,3.0,15.0,78,0.00,,RMK 146.475 MHz QRV !SN!,0.00,WUHU216DAVISVP2,2014-01-24 16:31:00,
2014-01-24 11:36:00,7.9,2.2,30.41,NE,46,3.0,15.0,77,0.00,,RMK 146.475 MHz QRV !SN!,0.00,WUHU216DAVISVP2,2014-01-24 16:36:00,
2014-01-24 11:41:00,8.3,2.6,30.41,NNE,27,2.0,15.0,77,0.00,,RMK 146.475 MHz QRV !SN!,0.00,WUHU216DAVISVP2,2014-01-24 16:41:00,
2014-01-24 11:46:00,8.4,2.1,30.40,East,91,8.0,15.0,75,0.00,,RMK 146.475 MHz QRV !SN!,0.00,WUHU216DAVISVP2,2014-01-24 16:46:00,
2014-01-24 11:51:00,8.4,1.8,30.40,NNE,21,3.0,15.0,74,0.00,,RMK 146.475 MHz QRV !SN!,0.00,WUHU216DAVISVP2,2014-01-24 16:51:00,
2014-01-24 11:56:00,8.4,1.6,30.39,NE,41,3.0,15.0,73,0.00,,RMK 146.475 MHz QRV !SN!,0.00,WUHU216DAVISVP2,2014-01-24 16:56:00,
2014-01-24 12:01:00,8.9,2.3,30.38,NNE,23,3.0,15.0,74,0.00,,RMK 146.475 MHz QRV !SN!,0.00,WUHU216DAVISVP2,2014-01-24 17:01:00,
2014-01-24 12:06:00,9.2,2.0,30.38,East,101,7.0,15.0,72,0.00,,RMK 146.475 MHz QRV !SN!,0.00,WUHU216DAVISVP2,2014-01-24 17:06:00,
2014-01-24 12:11:00,9.3,1.5,30.37,North,351,4.0,14.0,70,0.00,,RMK 146.475 MHz QRV !SN!,0.00,WUHU216DAVISVP2,2014-01-24 17:11:00,
2014-01-24 12:16:00,9.6,1.5,30.36,North,349,8.0,15.0,69,0.00,,RMK 146.475 MHz QRV !SN!,0.00,WUHU216DAVISVP2,2014-01-24 17:16:00,
2014-01-24 12:23:00,9.6,1.2,30.35,ENE,60,4.0,15.0,68,0.00,,RMK 146.475 MHz QRV !SN!,0.00,WUHU216DAVISVP2,2014-01-24 17:23:00,
2014-01-24 12:28:00,10.1,1.0,30.35,East,86,2.0,16.0,66,0.00,,RMK 146.475 MHz QRV !SN!,0.00,WUHU216DAVISVP2,2014-01-24 17:28:00,
2014-01-24 12:33:00,9.9,-0.1,30.34,SSE,159,5.0,19.0,63,0.00,,RMK 146.475 MHz QRV !SN!,0.00,WUHU216DAVISVP2,2014-01-24 17:33:00,
2014-01-24 12:38:00,10.1,0.4,30.33,ENE,70,2.0,19.0,64,0.00,,RMK 146.475 MHz QRV !SN!,0.00,WUHU216DAVISVP2,2014-01-24 17:38:00,
2014-01-24 12:43:00,10.3,-0.1,30.33,North,8,5.0,19.0,62,0.00,,RMK 146.475 MHz QRV !SN!,0.00,WUHU216DAVISVP2,2014-01-24 17:43:00,
2014-01-24 12:49:00,10.4,0.0,30.33,ENE,74,3.0,19.0,62,0.00,,RMK 146.475 MHz QRV !SN!,0.00,WUHU216DAVISVP2,2014-01-24 17:49:00,
2014-01-24 12:55:00,10.5,0.1,30.32,NE,34,5.0,16.0,62,0.00,,RMK 146.475 MHz QRV !SN!,0.00,WUHU216DAVISVP2,2014-01-24 17:55:00,
2014-01-24 13:02:00,10.7,-0.4,30.32,NE,41,3.0,17.0,60,0.00,,RMK 146.475 MHz QRV !SN!,0.00,WUHU216DAVISVP2,2014-01-24 18:02:00,
2014-01-24 13:07:00,11.3,-0.3,30.31,NE,41,2.0,20.0,59,0.00,,RMK 146.475 MHz QRV !SN!,0.00,WUHU216DAVISVP2,2014-01-24 18:07:00,
2014-01-24 13:12:00,11.5,-0.4,30.31,NNE,32,3.0,20.0,58,0.00,,RMK 146.475 MHz QRV !SN!,0.00,WUHU216DAVISVP2,2014-01-24 18:12:00,
2014-01-24 13:17:00,11.4,-0.9,30.29,North,5,5.0,17.0,57,0.00,,RMK 146.475 MHz QRV !SN!,0.00,WUHU216DAVISVP2,2014-01-24 18:17:00,
2014-01-24 13:22:00,11.5,-0.4,30.29,ENE,67,4.0,17.0,58,0.00,,RMK 146.475 MHz QRV !SN!,0.00,WUHU216DAVISVP2,2014-01-24 18:22:00,
2014-01-24 13:27:00,11.4,-1.3,30.28,North,353,6.0,17.0,56,0.00,,RMK 146.475 MHz QRV !SN!,0.00,WUHU216DAVISVP2,2014-01-24 18:27:00,
2014-01-24 13:32:00,11.5,-0.8,30.28,East,88,3.0,17.0,57,0.00,,RMK 146.475 MHz QRV !SN!,0.00,WUHU216DAVISVP2,2014-01-24 18:32:00,
2014-01-24 13:37:00,11.7,-0.6,30.27,North,7,11.0,20.0,57,0.00,,RMK 146.475 MHz QRV !SN!,0.00,WUHU216DAVISVP2,2014-01-24 18:37:00,
2014-01-24 13:42:00,11.9,-0.8,30.27,North,352,9.0,20.0,56,0.00,,RMK 146.475 MHz QRV !SN!,0.00,WUHU216DAVISVP2,2014-01-24 18:42:00,
2014-01-24 13:47:00,11.9,-0.8,30.26,NE,37,1.0,20.0,56,0.00,,RMK 146.475 MHz QRV !SN!,0.00,WUHU216DAVISVP2,2014-01-24 18:47:00,
2014-01-24 13:52:00,12.0,-0.7,30.26,NE,36,8.0,19.0,56,0.00,,RMK 146.475 MHz QRV !SN!,0.00,WUHU216DAVISVP2,2014-01-24 18:52:00,
2014-01-24 13:57:00,12.2,-0.5,30.25,NNE,26,4.0,19.0,56,0.00,,RMK 146.475 MHz QRV !SN!,0.00,WUHU216DAVISVP2,2014-01-24 18:57:00,
2014-01-24 14:02:00,12.1,-1.0,30.25,NNW,340,6.0,19.0,55,0.00,,RMK 146.475 MHz QRV !SN!,0.00,WUHU216DAVISVP2,2014-01-24 19:02:00,
2014-01-24 14:07:00,12.3,0.3,30.25,NNW,331,12.0,18.0,58,0.00,,RMK 146.475 MHz QRV !SN!,0.00,WUHU216DAVISVP2,2014-01-24 19:07:00,
2014-01-24 14:12:00,12.5,0.2,30.24,NNE,22,3.0,17.0,57,0.00,,RMK 146.475 MHz QRV !SN!,0.00,WUHU216DAVISVP2,2014-01-24 19:12:00,
2014-01-24 14:17:00,12.7,0.3,30.24,NNE,16,10.0,17.0,57,0.00,,RMK 146.475 MHz QRV !SN!,0.00,WUHU216DAVISVP2,2014-01-24 19:17:00,
2014-01-24 14:22:00,12.5,0.2,30.23,NNE,13,5.0,16.0,57,0.00,,RMK 146.475 MHz QRV !SN!,0.00,WUHU216DAVISVP2,2014-01-24 19:22:00,
2014-01-24 14:27:00,12.4,-0.3,30.23,NNW,348,12.0,17.0,56,0.00,,RMK 146.475 MHz QRV !SN!,0.00,WUHU216DAVISVP2,2014-01-24 19:27:00,
2014-01-24 14:32:00,12.3,-0.4,30.23,NE,40,11.0,18.0,56,0.00,,RMK 146.475 MHz QRV !SN!,0.00,WUHU216DAVISVP2,2014-01-24 19:32:00,
2014-01-24 14:37:00,12.1,-0.6,30.23,NNW,336,10.0,18.0,56,0.00,,RMK 146.475 MHz QRV !SN!,0.00,WUHU216DAVISVP2,2014-01-24 19:37:00,
2014-01-24 14:42:00,11.9,-1.2,30.23,NW,322,6.0,18.0,55,0.00,,RMK 146.475 MHz QRV !SN!,0.00,WUHU216DAVISVP2,2014-01-24 19:42:00,
2014-01-24 14:47:00,11.9,-0.4,30.22,NE,37,12.0,18.0,57,0.00,,RMK 146.475 MHz QRV !SN!,0.00,WUHU216DAVISVP2,2014-01-24 19:47:00,
2014-01-24 14:52:00,11.8,-0.9,30.21,ENE,62,2.0,17.0,56,0.00,,RMK 146.475 MHz QRV !SN!,0.00,WUHU216DAVISVP2,2014-01-24 19:52:00,
2014-01-24 14:57:00,11.7,-1.0,30.20,NNW,345,7.0,16.0,56,0.00,,RMK 146.475 MHz QRV !SN!,0.00,WUHU216DAVISVP2,2014-01-24 19:57:00,
2014-01-24 15:02:00,11.7,-1.0,30.20,NNE,26,5.0,17.0,56,0.00,,RMK 146.475 MHz QRV !SN!,0.00,WUHU216DAVISVP2,2014-01-24 20:02:00,
2014-01-24 15:07:00,11.7,-1.4,30.19,North,11,3.0,21.0,55,0.00,,RMK 146.475 MHz QRV !SN!,0.00,WUHU216DAVISVP2,2014-01-24 20:07:00,
2014-01-24 15:12:00,11.7,-1.4,30.20,NNW,335,7.0,21.0,55,0.00,,RMK 146.475 MHz QRV !SN!,0.00,WUHU216DAVISVP2,2014-01-24 20:12:00,
2014-01-24 15:22:00,11.8,-1.3,30.18,North,3,4.0,21.0,55,0.00,,RMK 146.475 MHz QRV !SN!,0.00,WUHU216DAVISVP2,2014-01-24 20:22:00,
2014-01-24 15:27:00,11.7,-1.4,30.18,NNE,28,5.0,20.0,55,0.00,,RMK 146.475 MHz QRV !SN!,0.00,WUHU216DAVISVP2,2014-01-24 20:27:00,
2014-01-24 15:32:00,11.7,-1.8,30.17,NE,51,5.0,20.0,54,0.00,,RMK 146.475 MHz QRV !SN!,0.00,WUHU216DAVISVP2,2014-01-24 20:32:00,
2014-01-24 15:37:00,11.8,-1.3,30.17,East,98,3.0,19.0,55,0.00,,RMK 146.475 MHz QRV !SN!,0.00,WUHU216DAVISVP2,2014-01-24 20:37:00,
2014-01-24 15:42:00,11.8,-1.3,30.17,NNE,19,5.0,19.0,55,0.00,,RMK 146.475 MHz QRV !SN!,0.00,WUHU216DAVISVP2,2014-01-24 20:42:00,
2014-01-24 15:47:00,11.9,-1.2,30.15,WNW,293,1.0,22.0,55,0.00,,RMK 146.475 MHz QRV !SN!,0.00,WUHU216DAVISVP2,2014-01-24 20:47:00,
2014-01-24 15:52:00,11.9,-1.2,30.15,NW,317,4.0,22.0,55,0.00,,RMK 146.475 MHz QRV !SN!,0.00,WUHU216DAVISVP2,2014-01-24 20:52:00,
2014-01-24 15:57:00,11.7,-1.4,30.14,NNW,329,12.0,22.0,55,0.00,,RMK 146.475 MHz QRV !SN!,0.00,WUHU216DAVISVP2,2014-01-24 20:57:00,
2014-01-24 16:02:00,11.7,-1.4,30.14,NNW,331,17.0,19.0,55,0.00,,RMK 146.475 MHz QRV !SN!,0.00,WUHU216DAVISVP2,2014-01-24 21:02:00,
2014-01-24 16:07:00,11.7,-1.4,30.15,NE,35,3.0,21.0,55,0.00,,RMK 146.475 MHz QRV !SN!,0.00,WUHU216DAVISVP2,2014-01-24 21:07:00,
2014-01-24 16:12:00,11.7,-1.0,30.14,North,355,7.0,21.0,56,0.00,,RMK 146.475 MHz QRV !SN!,0.00,WUHU216DAVISVP2,2014-01-24 21:12:00,
2014-01-24 16:17:00,11.7,-1.0,30.13,NE,47,5.0,21.0,56,0.00,,RMK 146.475 MHz QRV !SN!,0.00,WUHU216DAVISVP2,2014-01-24 21:17:00,
2014-01-24 16:22:00,11.6,-1.1,30.13,NNW,336,12.0,21.0,56,0.00,,RMK 146.475 MHz QRV !SN!,0.00,WUHU216DAVISVP2,2014-01-24 21:22:00,
2014-01-24 16:27:00,11.6,-0.7,30.12,NNW,329,15.0,21.0,57,0.00,,RMK 146.475 MHz QRV !SN!,0.00,WUHU216DAVISVP2,2014-01-24 21:27:00,
2014-01-24 16:32:00,11.6,-1.1,30.12,NNE,23,6.0,21.0,56,0.00,,RMK 146.475 MHz QRV !SN!,0.00,WUHU216DAVISVP2,2014-01-24 21:32:00,
2014-01-24 16:37:00,11.6,-1.1,30.12,SSE,166,2.0,20.0,56,0.00,,RMK 146.475 MHz QRV !SN!,0.00,WUHU216DAVISVP2,2014-01-24 21:37:00,
2014-01-24 16:42:00,11.8,-0.5,30.11,ENE,63,2.0,20.0,57,0.00,,RMK 146.475 MHz QRV !SN!,0.00,WUHU216DAVISVP2,2014-01-24 21:42:00,
2014-01-24 16:47:00,11.8,-0.9,30.11,East,94,2.0,20.0,56,0.00,,RMK 146.475 MHz QRV !SN!,0.00,WUHU216DAVISVP2,2014-01-24 21:47:00,
2014-01-24 16:52:00,11.9,-0.8,30.11,NW,324,5.0,22.0,56,0.00,,RMK 146.475 MHz QRV !SN!,0.00,WUHU216DAVISVP2,2014-01-24 21:52:00,
2014-01-24 16:57:00,11.9,-0.8,30.10,NE,38,2.0,22.0,56,0.00,,RMK 146.475 MHz QRV !SN!,0.00,WUHU216DAVISVP2,2014-01-24 21:57:00,
2014-01-24 17:02:00,12.0,-0.3,30.10,NNW,335,5.0,21.0,57,0.00,,RMK 146.475 MHz QRV !SN!,0.00,WUHU216DAVISVP2,2014-01-24 22:02:00,
2014-01-24 17:07:00,12.1,-0.6,30.09,North,5,3.0,20.0,56,0.00,,RMK 146.475 MHz QRV !SN!,0.00,WUHU216DAVISVP2,2014-01-24 22:07:00,
2014-01-24 17:12:00,12.2,-0.5,30.09,ENE,58,10.0,20.0,56,0.00,,RMK 146.475 MHz QRV !SN!,0.00,WUHU216DAVISVP2,2014-01-24 22:12:00,
2014-01-24 17:17:00,12.2,-0.5,30.08,WSW,244,8.0,18.0,56,0.00,,RMK 146.475 MHz QRV !SN!,0.00,WUHU216DAVISVP2,2014-01-24 22:17:00,
2014-01-24 17:22:00,12.3,-0.4,30.07,North,5,16.0,18.0,56,0.00,,RMK 146.475 MHz QRV !SN!,0.00,WUHU216DAVISVP2,2014-01-24 22:22:00,
2014-01-24 17:27:00,12.4,-0.3,30.06,NW,316,6.0,17.0,56,0.00,,RMK 146.475 MHz QRV !SN!,0.00,WUHU216DAVISVP2,2014-01-24 22:27:00,
2014-01-24 17:32:00,12.4,0.1,30.05,NNW,330,8.0,19.0,57,0.00,,RMK 146.475 MHz QRV !SN!,0.00,WUHU216DAVISVP2,2014-01-24 22:32:00,
2014-01-24 17:37:00,12.5,0.2,30.06,North,1,5.0,19.0,57,0.00,,RMK 146.475 MHz QRV !SN!,0.00,WUHU216DAVISVP2,2014-01-24 22:37:00,
2014-01-24 17:42:00,12.5,0.2,30.05,NW,321,10.0,18.0,57,0.00,,RMK 146.475 MHz QRV !SN!,0.00,WUHU216DAVISVP2,2014-01-24 22:42:00,
2014-01-24 17:47:00,12.6,-0.1,30.05,NNE,18,4.0,18.0,56,0.00,,RMK 146.475 MHz QRV !SN!,0.00,WUHU216DAVISVP2,2014-01-24 22:47:00,
2014-01-24 17:52:00,12.5,-0.2,30.05,NNE,23,7.0,17.0,56,0.00,,RMK 146.475 MHz QRV !SN!,0.00,WUHU216DAVISVP2,2014-01-24 22:52:00,
2014-01-24 17:57:00,12.6,-0.5,30.04,North,359,17.0,22.0,55,0.00,,RMK 146.475 MHz QRV !SN!,0.00,WUHU216DAVISVP2,2014-01-24 22:57:00,
2014-01-24 18:02:00,12.7,-0.4,30.03,SW,215,1.0,22.0,55,0.00,,RMK 146.475 MHz QRV !SN!,0.00,WUHU216DAVISVP2,2014-01-24 23:02:00,
2014-01-24 18:07:00,12.8,-0.7,30.03,NE,44,5.0,22.0,54,0.00,,RMK 146.475 MHz QRV !SN!,0.00,WUHU216DAVISVP2,2014-01-24 23:07:00,
2014-01-24 18:12:00,13.0,-0.6,30.03,North,355,4.0,22.0,54,0.00,,RMK 146.475 MHz QRV !SN!,0.00,WUHU216DAVISVP2,2014-01-24 23:12:00,
2014-01-24 18:17:00,13.1,-0.1,30.03,North,1,12.0,22.0,55,0.00,,RMK 146.475 MHz QRV !SN!,0.00,WUHU216DAVISVP2,2014-01-24 23:17:00,
2014-01-24 18:22:00,13.1,-0.1,30.03,NNW,333,10.0,22.0,55,0.00,,RMK 146.475 MHz QRV !SN!,0.00,WUHU216DAVISVP2,2014-01-24 23:22:00,
2014-01-24 18:27:00,13.0,0.2,30.03,NNE,26,4.0,24.0,56,0.00,,RMK 146.475 MHz QRV !SN!,0.00,WUHU216DAVISVP2,2014-01-24 23:27:00,
2014-01-24 18:32:00,13.0,0.6,30.03,WNW,296,14.0,24.0,57,0.00,,RMK 146.475 MHz QRV !SN!,0.00,WUHU216DAVISVP2,2014-01-24 23:32:00,
2014-01-24 18:37:00,13.0,0.6,30.03,SW,225,3.0,24.0,57,0.00,,RMK 146.475 MHz QRV !SN!,0.00,WUHU216DAVISVP2,2014-01-24 23:37:00,
2014-01-24 18:42:00,13.1,0.7,30.03,NNW,331,10.0,19.0,57,0.00,,RMK 146.475 MHz QRV !SN!,0.00,WUHU216DAVISVP2,2014-01-24 23:42:00,
2014-01-24 18:47:00,13.0,1.0,30.03,ESE,121,3.0,22.0,58,0.00,,RMK 146.475 MHz QRV !SN!,0.00,WUHU216DAVISVP2,2014-01-24 23:47:00,
2014-01-24 18:52:00,12.9,1.7,30.03,NNE,20,4.0,22.0,60,0.00,,RMK 146.475 MHz QRV !SN!,0.00,WUHU216DAVISVP2,2014-01-24 23:52:00,
2014-01-24 18:57:00,13.0,1.4,30.03,North,355,7.0,22.0,59,0.00,,RMK 146.475 MHz QRV !SN!,0.00,WUHU216DAVISVP2,2014-01-24 23:57:00,
2014-01-24 19:02:00,13.0,1.4,30.03,NNW,347,7.0,22.0,59,0.00,,RMK 146.475 MHz QRV !SN!,0.00,WUHU216DAVISVP2,2014-01-25 00:02:00,
2014-01-24 19:07:00,13.0,1.4,30.02,NNW,345,3.0,18.0,59,0.00,,RMK 146.475 MHz QRV !SN!,0.00,WUHU216DAVISVP2,2014-01-25 00:07:00,
2014-01-24 19:12:00,13.0,1.4,30.02,NNE,12,13.0,18.0,59,0.00,,RMK 146.475 MHz QRV !SN!,0.00,WUHU216DAVISVP2,2014-01-25 00:12:00,
2014-01-24 19:17:00,13.0,1.4,30.02,NNE,26,11.0,18.0,59,0.00,,RMK 146.475 MHz QRV !SN!,0.00,WUHU216DAVISVP2,2014-01-25 00:17:00,
2014-01-24 19:22:00,13.1,1.5,30.02,North,355,10.0,19.0,59,0.00,,RMK 146.475 MHz QRV !SN!,0.00,WUHU216DAVISVP2,2014-01-25 00:22:00,
2014-01-24 19:27:00,13.0,1.4,30.02,WNW,294,5.0,19.0,59,0.00,,RMK 146.475 MHz QRV !SN!,0.00,WUHU216DAVISVP2,2014-01-25 00:27:00,
2014-01-24 19:32:00,13.0,1.7,30.01,NE,41,6.0,19.0,60,0.00,,RMK 146.475 MHz QRV !SN!,0.00,WUHU216DAVISVP2,2014-01-25 00:32:00,
2014-01-24 19:37:00,12.9,1.7,30.01,NNW,342,6.0,19.0,60,0.00,,RMK 146.475 MHz QRV !SN!,0.00,WUHU216DAVISVP2,2014-01-25 00:37:00,
2014-01-24 19:42:00,13.0,1.4,30.01,WNW,297,4.0,20.0,59,0.00,,RMK 146.475 MHz QRV !SN!,0.00,WUHU216DAVISVP2,2014-01-25 00:42:00,
2014-01-24 19:47:00,13.1,1.5,30.00,NNW,340,8.0,20.0,59,0.00,,RMK 146.475 MHz QRV !SN!,0.00,WUHU216DAVISVP2,2014-01-25 00:47:00,
2014-01-24 19:52:00,13.1,1.5,30.00,WNW,288,7.0,20.0,59,0.00,,RMK 146.475 MHz QRV !SN!,0.00,WUHU216DAVISVP2,2014-01-25 00:52:00,
2014-01-24 19:57:00,13.2,1.6,30.00,East,87,4.0,18.0,59,0.00,,RMK 146.475 MHz QRV !SN!,0.00,WUHU216DAVISVP2,2014-01-25 00:57:00,
2014-01-24 20:02:00,13.3,1.7,30.00,NE,39,1.0,18.0,59,0.00,,RMK 146.475 MHz QRV !SN!,0.00,WUHU216DAVISVP2,2014-01-25 01:02:00,
2014-01-24 20:07:00,13.3,1.7,30.00,East,93,7.0,17.0,59,0.00,,RMK 146.475 MHz QRV !SN!,0.00,WUHU216DAVISVP2,2014-01-25 01:07:00,
2014-01-24 20:12:00,13.3,1.3,30.00,East,85,1.0,18.0,58,0.00,,RMK 146.475 MHz QRV !SN!,0.00,WUHU216DAVISVP2,2014-01-25 01:12:00,
2014-01-24 20:17:00,13.4,1.8,30.00,ENE,62,2.0,18.0,59,0.00,,RMK 146.475 MHz QRV !SN!,0.00,WUHU216DAVISVP2,2014-01-25 01:17:00,
2014-01-24 20:22:00,13.4,1.4,29.99,NE,39,5.0,16.0,58,0.00,,RMK 146.475 MHz QRV !SN!,0.00,WUHU216DAVISVP2,2014-01-25 01:22:00,
2014-01-24 20:27:00,13.5,1.9,30.00,NNW,335,3.0,16.0,59,0.00,,RMK 146.475 MHz QRV !SN!,0.00,WUHU216DAVISVP2,2014-01-25 01:27:00,
2014-01-24 20:32:00,13.5,1.1,29.99,NNW,342,7.0,21.0,57,0.00,,RMK 146.475 MHz QRV !SN!,0.00,WUHU216DAVISVP2,2014-01-25 01:32:00,
2014-01-24 20:37:00,13.5,1.5,29.98,NE,46,4.0,21.0,58,0.00,,RMK 146.475 MHz QRV !SN!,0.00,WUHU216DAVISVP2,2014-01-25 01:37:00,
2014-01-24 20:42:00,13.5,1.5,29.97,NW,322,5.0,21.0,58,0.00,,RMK 146.475 MHz QRV !SN!,0.00,WUHU216DAVISVP2,2014-01-25 01:42:00,
2014-01-24 20:47:00,13.6,1.6,29.97,NE,44,3.0,21.0,58,0.00,,RMK 146.475 MHz QRV !SN!,0.00,WUHU216DAVISVP2,2014-01-25 01:47:00,
2014-01-24 20:52:00,13.6,1.6,29.96,NNW,333,6.0,19.0,58,0.00,,RMK 146.475 MHz QRV !SN!,0.00,WUHU216DAVISVP2,2014-01-25 01:52:00,
2014-01-24 20:57:00,13.6,1.5,29.96,NNE,27,2.0,20.0,58,0.00,,RMK 146.475 MHz QRV !SN!,0.00,WUHU216DAVISVP2,2014-01-25 01:57:00,
2014-01-24 21:02:00,13.7,1.7,29.95,NNE,23,4.0,20.0,58,0.00,,RMK 146.475 MHz QRV !SN!,0.00,WUHU216DAVISVP2,2014-01-25 02:02:00,
2014-01-24 21:07:00,13.8,1.8,29.95,East,80,1.0,18.0,58,0.00,,RMK 146.475 MHz QRV !SN!,0.00,WUHU216DAVISVP2,2014-01-25 02:07:00,
2014-01-24 21:12:00,13.9,1.9,29.94,East,89,2.0,18.0,58,0.00,,RMK 146.475 MHz QRV !SN!,0.00,WUHU216DAVISVP2,2014-01-25 02:12:00,
2014-01-24 21:17:00,14.0,1.6,29.93,West,273,5.0,16.0,57,0.00,,RMK 146.475 MHz QRV !SN!,0.00,WUHU216DAVISVP2,2014-01-25 02:17:00,
2014-01-24 21:22:00,14.0,1.6,29.94,NNW,347,8.0,17.0,57,0.00,,RMK 146.475 MHz QRV !SN!,0.00,WUHU216DAVISVP2,2014-01-25 02:22:00,
2014-01-24 21:27:00,14.0,1.6,29.94,NE,44,4.0,22.0,57,0.00,,RMK 146.475 MHz QRV !SN!,0.00,WUHU216DAVISVP2,2014-01-25 02:27:00,
2014-01-24 21:32:00,14.0,1.6,29.93,NE,39,4.0,22.0,57,0.00,,RMK 146.475 MHz QRV !SN!,0.00,WUHU216DAVISVP2,2014-01-25 02:32:00,
2014-01-24 21:37:00,14.1,2.0,29.93,ENE,59,6.0,24.0,58,0.00,,RMK 146.475 MHz QRV !SN!,0.00,WUHU216DAVISVP2,2014-01-25 02:37:00,
2014-01-24 21:42:00,14.2,2.1,29.93,NNW,337,5.0,24.0,58,0.00,,RMK 146.475 MHz QRV !SN!,0.00,WUHU216DAVISVP2,2014-01-25 02:42:00,
2014-01-24 21:47:00,14.3,2.2,29.92,NE,39,3.0,23.0,58,0.00,,RMK 146.475 MHz QRV !SN!,0.00,WUHU216DAVISVP2,2014-01-25 02:47:00,
2014-01-24 21:52:00,14.3,1.8,29.92,NW,326,9.0,16.0,57,0.00,,RMK 146.475 MHz QRV !SN!,0.00,WUHU216DAVISVP2,2014-01-25 02:52:00,
2014-01-24 21:57:00,14.4,1.9,29.91,North,353,4.0,15.0,57,0.00,,RMK 146.475 MHz QRV !SN!,0.00,WUHU216DAVISVP2,2014-01-25 02:57:00,
2014-01-24 22:02:00,14.6,1.7,29.91,NNE,33,5.0,20.0,56,0.00,,RMK 146.475 MHz QRV !SN!,0.00,WUHU216DAVISVP2,2014-01-25 03:02:00,
2014-01-24 22:07:00,14.7,1.8,29.91,North,354,6.0,20.0,56,0.00,,RMK 146.475 MHz QRV !SN!,0.00,WUHU216DAVISVP2,2014-01-25 03:07:00,
2014-01-24 22:12:00,14.7,2.2,29.91,NNW,335,8.0,20.0,57,0.00,,RMK 146.475 MHz QRV !SN!,0.00,WUHU216DAVISVP2,2014-01-25 03:12:00,
2014-01-24 22:17:00,14.7,2.2,29.90,NNW,328,9.0,20.0,57,0.00,,RMK 146.475 MHz QRV !SN!,0.00,WUHU216DAVISVP2,2014-01-25 03:17:00,
2014-01-24 22:22:00,14.8,2.3,29.89,WNW,302,3.0,15.0,57,0.00,,RMK 146.475 MHz QRV !SN!,0.00,WUHU216DAVISVP2,2014-01-25 03:22:00,
2014-01-24 22:27:00,14.8,2.3,29.89,ENE,58,4.0,16.0,57,0.00,,RMK 146.475 MHz QRV !SN!,0.00,WUHU216DAVISVP2,2014-01-25 03:27:00,
2014-01-24 22:32:00,14.7,2.6,29.89,SSW,208,1.0,16.0,58,0.00,,RMK 146.475 MHz QRV !SN!,0.00,WUHU216DAVISVP2,2014-01-25 03:32:00,
2014-01-24 22:37:00,14.7,3.0,29.88,North,353,4.0,16.0,59,0.00,,RMK 146.475 MHz QRV !SN!,0.00,WUHU216DAVISVP2,2014-01-25 03:37:00,
2014-01-24 22:42:00,14.8,2.7,29.88,ENE,75,12.0,16.0,58,0.00,,RMK 146.475 MHz QRV !SN!,0.00,WUHU216DAVISVP2,2014-01-25 03:42:00,
2014-01-24 22:47:00,15.0,2.5,29.87,SE,138,3.0,18.0,57,0.00,,RMK 146.475 MHz QRV !SN!,0.00,WUHU216DAVISVP2,2014-01-25 03:47:00,
2014-01-24 22:52:00,15.2,2.7,29.87,ENE,57,2.0,18.0,57,0.00,,RMK 146.475 MHz QRV !SN!,0.00,WUHU216DAVISVP2,2014-01-25 03:52:00,
2014-01-24 22:57:00,15.2,3.1,29.87,NNE,15,11.0,18.0,58,0.00,,RMK 146.475 MHz QRV !SN!,0.00,WUHU216DAVISVP2,2014-01-25 03:57:00,
2014-01-24 23:02:00,15.1,3.0,29.86,SE,135,1.0,17.0,58,0.00,,RMK 146.475 MHz QRV !SN!,0.00,WUHU216DAVISVP2,2014-01-25 04:02:00,
2014-01-24 23:07:00,15.1,3.0,29.86,NNE,20,5.0,23.0,58,0.00,,RMK 146.475 MHz QRV !SN!,0.00,WUHU216DAVISVP2,2014-01-25 04:07:00,
2014-01-24 23:12:00,15.1,3.4,29.85,NNE,15,6.0,23.0,59,0.00,,RMK 146.475 MHz QRV !SN!,0.00,WUHU216DAVISVP2,2014-01-25 04:12:00,
2014-01-24 23:17:00,15.1,3.4,29.85,North,8,6.0,23.0,59,0.00,,RMK 146.475 MHz QRV !SN!,0.00,WUHU216DAVISVP2,2014-01-25 04:17:00,
2014-01-24 23:22:00,15.2,3.5,29.84,East,99,4.0,23.0,59,0.00,,RMK 146.475 MHz QRV !SN!,0.00,WUHU216DAVISVP2,2014-01-25 04:22:00,
2014-01-24 23:27:00,15.2,3.5,29.83,NE,50,12.0,17.0,59,0.00,,RMK 146.475 MHz QRV !SN!,0.00,WUHU216DAVISVP2,2014-01-25 04:27:00,
2014-01-24 23:32:00,15.3,3.9,29.83,South,172,1.0,17.0,60,0.00,,RMK 146.475 MHz QRV !SN!,0.00,WUHU216DAVISVP2,2014-01-25 04:32:00,
2014-01-24 23:37:00,15.4,3.6,29.82,NNE,30,3.0,17.0,59,0.00,,RMK 146.475 MHz QRV !SN!,0.00,WUHU216DAVISVP2,2014-01-25 04:37:00,
2014-01-24 23:42:00,15.5,3.7,29.82,North,8,6.0,17.0,59,0.00,,RMK 146.475 MHz QRV !SN!,0.00,WUHU216DAVISVP2,2014-01-25 04:42:00,
2014-01-24 23:47:00,15.6,3.8,29.82,NNW,342,7.0,17.0,59,0.00,,RMK 146.475 MHz QRV !SN!,0.00,WUHU216DAVISVP2,2014-01-25 04:47:00,
2014-01-24 23:52:00,15.6,3.8,29.82,ENE,70,2.0,17.0,59,0.00,,RMK 146.475 MHz QRV !SN!,0.00,WUHU216DAVISVP2,2014-01-25 04:52:00,
2014-01-24 23:57:00,15.7,4.3,29.81,NNE,27,7.0,17.0,60,0.00,,RMK 146.475 MHz QRV !SN!,0.00,WUHU216DAVISVP2,2014-01-25 04:57:00,